Nearby METAR Reports

 

KMLP - Mullan Pass
Updated: Sun, 15-Sep-2019 5:53am PDT
Clear
Clear
 Wind from S
Wind: S 5 mph , 7 km/h
Temperature: 50°F , 10°C
Wind Chill: 48°F , 9°C
Dew Point: 37°F , 3°C
Humidity: 62%
Barometer: 29.91 inHg , 1012.9 hPa
Clouds: Clear
Visibility: 10 miles , 16 km
2019/09/15 12:53 KMLP 151253Z AUTO 17004KT 10SM CLR 10/03 A2991 RMK AO2 SLP050 T01000033
KCOE - Coeur d Alene
Updated: Sun, 15-Sep-2019 5:56am PDT
Clear
Clear
 Wind from ENE
Wind: ENE 5 mph , 7 km/h
Temperature: 46°F , 8°C
Wind Chill: 44°F , 7°C
Dew Point: 45°F , 7°C
Humidity: 93%
Barometer: 29.79 inHg , 1008.8 hPa
Clouds: Clear
Visibility: 10 miles , 16 km
2019/09/15 12:56 KCOE 151256Z AUTO 07004KT 10SM CLR 08/07 A2979 RMK AO2 SLP100 T00780067
 
KLWS - Lewiston
Updated: Sun, 15-Sep-2019 5:56am PDT
Clear
Clear
 Wind from calm
Wind: Calm
Temperature: 55°F , 13°C
Dew Point: 45°F , 7°C
Humidity: 67%
Barometer: 29.77 inHg , 1008.1 hPa
Clouds: Clear
Visibility: 10 miles , 16 km
2019/09/15 12:56 KLWS 151256Z AUTO 00000KT 10SM CLR 13/07 A2977 RMK AO2 SLP073 T01330072
KGEG - Spokane Intl
Updated: Sun, 15-Sep-2019 5:53am PDT
Few Clouds
Few Clouds
 Wind from S
Wind: S 3 mph , 6 km/h
Temperature: 52°F , 11°C
Dew Point: 43°F , 6°C
Humidity: 72%
Barometer: 29.77 inHg , 1008.1 hPa
Clouds: Few Clouds
Visibility: 10 miles , 16 km
Cloud details: Few Clouds 8000 ft
Few Clouds 11000 ft
Few Clouds 16000 ft
2019/09/15 12:53 KGEG 151253Z 17003KT 10SM FEW080 FEW110 FEW160 11/06 A2977 RMK AO2 SLP073 T01110056